Lakeland, Louisiana
Current Conditions -  °F | °C
As of 10:35 PM on Thursday 18 Dec 2014 (Local Time) from KHZR Reporting Station
Overcast Overcast  
Wind Chill: 55°   Ceiling: 2100
Heat Index: 55°   Visibility: 7mi
Dew Point: 54°   Wind: 6mph
Humidity: 97%   Direction: 50°NE
Pressure: 30.14"   Gusts: NA
Location:  30.6°N, 91.4°W
Report Text: KHZR 190435Z AUTO 05005KT 7SM SCT004 OVC021 13/12 A3014 RMK AO2 T01250120
Loading
Personal Weather Stations






























Interactive Weather Map New forecast layout! Learn more

10-Day Weather Forecast

Advertisements
Track Severe Weather on mobile